createdAt,value
2023-11-11T00:01:59.070Z,15.79
2023-11-11T00:04:26.586Z,15.76
2023-11-11T00:06:53.708Z,15.73
2023-11-11T00:09:20.789Z,15.74
2023-11-11T00:11:49.335Z,15.61
2023-11-11T00:14:18.142Z,15.58
2023-11-11T00:16:45.461Z,15.64
2023-11-11T00:19:12.628Z,15.71
2023-11-11T00:21:39.909Z,15.73
2023-11-11T00:24:07.495Z,15.66
2023-11-11T00:26:34.932Z,15.60
2023-11-11T00:29:03.379Z,15.65
2023-11-11T00:31:30.618Z,15.56
2023-11-11T00:33:57.611Z,15.68
2023-11-11T00:36:24.695Z,15.71
2023-11-11T00:38:51.714Z,15.71
2023-11-11T00:41:18.864Z,15.70
2023-11-11T00:43:45.811Z,15.61
2023-11-11T00:46:14.418Z,15.70
2023-11-11T00:48:41.683Z,15.68
2023-11-11T00:51:09.031Z,15.67
2023-11-11T00:53:36.139Z,15.66
2023-11-11T00:56:03.966Z,15.66
2023-11-11T00:58:31.168Z,15.63
2023-11-11T01:00:58.302Z,15.59
2023-11-11T01:03:26.935Z,15.51
2023-11-11T01:05:54.052Z,15.36
2023-11-11T01:08:21.355Z,15.47
2023-11-11T01:10:48.473Z,15.49
2023-11-11T01:13:15.631Z,15.56
2023-11-11T01:15:42.756Z,15.57
2023-11-11T01:18:09.953Z,15.58
2023-11-11T01:20:38.608Z,15.60
2023-11-11T01:23:05.740Z,15.61
2023-11-11T01:25:32.940Z,15.59
2023-11-11T01:28:00.059Z,15.58
2023-11-11T01:30:27.106Z,15.54
2023-11-11T01:32:54.354Z,15.51
2023-11-11T01:35:21.408Z,15.48
2023-11-11T01:37:49.868Z,15.55
2023-11-11T01:40:17.126Z,15.52
2023-11-11T01:42:44.142Z,15.53
2023-11-11T01:45:11.314Z,15.48
2023-11-11T01:47:38.860Z,15.47
2023-11-11T01:50:07.641Z,15.47
2023-11-11T01:52:35.222Z,15.45
2023-11-11T01:55:06.793Z,15.47
2023-11-11T01:57:34.057Z,15.23
2023-11-11T02:00:03.078Z,15.31
2023-11-11T02:02:30.162Z,15.36
2023-11-11T02:04:57.566Z,15.34
2023-11-11T02:07:24.782Z,15.35
2023-11-11T02:09:51.912Z,15.37
2023-11-11T02:12:20.876Z,15.42
2023-11-11T02:14:48.637Z,16.31
2023-11-11T02:17:15.689Z,16.47
2023-11-11T02:19:42.607Z,16.60
2023-11-11T02:22:09.823Z,16.58
2023-11-11T02:24:41.332Z,16.57
2023-11-11T02:27:08.420Z,16.61
2023-11-11T02:29:44.488Z,16.70
2023-11-11T02:32:11.578Z,16.88
2023-11-11T02:34:38.716Z,17.11
2023-11-11T02:37:05.914Z,17.23
2023-11-11T02:39:33.032Z,17.32
2023-11-11T02:42:01.376Z,17.52
2023-11-11T02:44:28.280Z,17.55
2023-11-11T02:46:55.351Z,17.57
2023-11-11T02:49:22.326Z,17.60
2023-11-11T02:51:49.346Z,17.70
2023-11-11T02:54:16.528Z,17.65
2023-11-11T02:56:43.592Z,17.70
2023-11-11T02:59:12.149Z,17.65
2023-11-11T03:01:39.265Z,17.76
2023-11-11T03:04:06.942Z,17.75
2023-11-11T03:06:34.464Z,17.82
2023-11-11T03:09:01.543Z,17.93
2023-11-11T03:11:28.781Z,17.96
2023-11-11T03:13:55.767Z,17.98
2023-11-11T03:16:33.506Z,18.05
2023-11-11T03:19:00.584Z,17.88
2023-11-11T03:21:27.640Z,17.74
2023-11-11T03:23:54.641Z,17.83
2023-11-11T03:26:21.676Z,17.75
2023-11-11T03:28:48.679Z,17.78
2023-11-11T03:31:15.781Z,17.87
2023-11-11T03:33:44.296Z,17.88
2023-11-11T03:36:11.339Z,17.78
2023-11-11T03:38:38.314Z,17.76
2023-11-11T03:41:05.332Z,17.72
2023-11-11T03:43:32.262Z,17.85
2023-11-11T03:45:59.325Z,17.77
2023-11-11T03:48:26.441Z,17.76
2023-11-11T03:50:54.899Z,17.68
2023-11-11T03:53:21.819Z,17.61
2023-11-11T03:55:49.195Z,17.64
2023-11-11T03:58:16.717Z,17.56
2023-11-11T04:00:43.862Z,17.53
2023-11-11T04:03:11.047Z,17.45
2023-11-11T04:05:38.251Z,17.54
2023-11-11T04:08:06.782Z,17.60
2023-11-11T04:10:33.850Z,17.57
2023-11-11T04:13:02.712Z,17.70
2023-11-11T04:15:29.760Z,17.57
2023-11-11T04:17:56.802Z,17.68
2023-11-11T04:20:23.828Z,17.68
2023-11-11T04:22:50.832Z,17.60
2023-11-11T04:25:19.371Z,17.66
2023-11-11T04:27:46.453Z,17.71
2023-11-11T04:30:13.675Z,17.70
2023-11-11T04:32:41.692Z,17.67
2023-11-11T04:35:08.925Z,17.67
2023-11-11T04:37:36.063Z,17.75
2023-11-11T04:40:03.141Z,17.58
2023-11-11T04:42:31.610Z,17.73
2023-11-11T04:44:58.591Z,17.72
2023-11-11T04:47:25.543Z,17.72
2023-11-11T04:49:52.558Z,17.73
2023-11-11T04:52:20.007Z,17.79
2023-11-11T04:54:46.953Z,17.78
2023-11-11T04:57:14.038Z,17.75
2023-11-11T04:59:42.412Z,17.67
2023-11-11T05:02:09.423Z,17.71
2023-11-11T05:04:36.472Z,17.74
2023-11-11T05:07:03.728Z,17.71
2023-11-11T05:09:30.833Z,17.66
2023-11-11T05:11:58.089Z,17.67
2023-11-11T05:14:26.430Z,17.84
2023-11-11T05:16:54.902Z,17.78
2023-11-11T05:19:22.330Z,17.77
2023-11-11T05:21:49.486Z,17.82
2023-11-11T05:24:16.781Z,17.74
2023-11-11T05:26:43.956Z,17.69
2023-11-11T05:29:11.021Z,17.61
2023-11-11T05:31:38.217Z,17.79
2023-11-11T05:34:06.798Z,17.65
2023-11-11T05:36:34.100Z,17.51
2023-11-11T05:39:01.239Z,17.59
2023-11-11T05:41:28.450Z,17.59
2023-11-11T05:43:55.543Z,17.63
2023-11-11T05:46:22.576Z,17.61
2023-11-11T05:48:49.610Z,17.59
2023-11-11T05:51:18.177Z,17.57
2023-11-11T05:53:45.209Z,17.49
2023-11-11T05:56:12.155Z,17.52
2023-11-11T05:58:39.066Z,17.58
2023-11-11T06:01:06.763Z,17.57
2023-11-11T06:03:34.161Z,17.54
2023-11-11T06:06:02.385Z,17.56
2023-11-11T06:08:31.033Z,17.46
2023-11-11T06:10:58.070Z,17.40
2023-11-11T06:13:25.035Z,17.40
2023-11-11T06:15:52.406Z,17.32
2023-11-11T06:18:19.487Z,17.33
2023-11-11T06:20:46.442Z,17.36
2023-11-11T06:25:44.822Z,17.35
2023-11-11T06:28:11.849Z,17.32
2023-11-11T06:30:38.884Z,17.34
2023-11-11T06:33:06.170Z,17.32
2023-11-11T06:35:34.546Z,17.43
2023-11-11T06:38:01.581Z,17.44
2023-11-11T06:40:28.877Z,17.47
2023-11-11T06:42:57.548Z,17.40
2023-11-11T06:45:24.787Z,17.39
2023-11-11T06:47:52.159Z,17.38
2023-11-11T06:50:19.546Z,17.39
2023-11-11T06:52:46.772Z,17.41
2023-11-11T06:55:14.208Z,17.46
2023-11-11T06:57:41.277Z,17.41
2023-11-11T07:00:10.816Z,17.31
2023-11-11T07:02:37.790Z,17.03
2023-11-11T07:05:05.384Z,17.27
2023-11-11T07:07:32.381Z,17.31
2023-11-11T07:09:59.340Z,17.27
2023-11-11T07:12:26.360Z,17.47
2023-11-11T07:14:53.393Z,17.34
2023-11-11T07:17:21.772Z,17.48
2023-11-11T07:19:48.725Z,17.47
2023-11-11T07:24:45.618Z,17.57
2023-11-11T07:27:12.633Z,17.62
2023-11-11T07:29:39.790Z,17.54
2023-11-11T07:32:07.294Z,17.58
2023-11-11T07:34:35.610Z,17.66
2023-11-11T07:37:02.563Z,17.72
2023-11-11T07:39:29.571Z,17.61
2023-11-11T07:41:56.692Z,17.65
2023-11-11T07:44:23.656Z,17.69
2023-11-11T07:46:50.713Z,17.62
2023-11-11T07:49:17.628Z,17.67
2023-11-11T07:51:46.045Z,17.65
2023-11-11T07:54:13.021Z,17.53
2023-11-11T07:56:40.004Z,17.59
2023-11-11T07:59:07.128Z,17.60
2023-11-11T08:01:34.436Z,17.47
2023-11-11T08:04:01.490Z,17.44
2023-11-11T08:06:28.496Z,17.50
2023-11-11T08:08:57.093Z,17.53
2023-11-11T08:11:24.548Z,17.61
2023-11-11T08:13:51.758Z,17.47
2023-11-11T08:16:19.141Z,17.59
2023-11-11T08:18:48.436Z,17.57
2023-11-11T08:21:16.331Z,17.64
2023-11-11T08:23:43.253Z,17.61
2023-11-11T08:26:11.582Z,17.52
2023-11-11T08:28:38.615Z,17.62
2023-11-11T08:31:05.755Z,17.55
2023-11-11T08:33:32.797Z,17.68
2023-11-11T08:35:59.909Z,17.79
2023-11-11T08:38:27.159Z,17.71
2023-11-11T08:40:54.331Z,17.67
2023-11-11T08:43:22.728Z,17.67
2023-11-11T08:45:49.761Z,17.77
2023-11-11T08:48:16.941Z,17.75
2023-11-11T08:50:43.952Z,17.90
2023-11-11T08:53:10.989Z,18.19
2023-11-11T08:55:37.935Z,18.21
2023-11-11T08:58:04.940Z,18.16
2023-11-11T09:00:33.346Z,18.23
2023-11-11T09:03:00.454Z,18.13
2023-11-11T09:05:27.753Z,18.04
2023-11-11T09:07:54.777Z,18.04
2023-11-11T09:10:21.920Z,17.92
2023-11-11T09:12:48.998Z,17.96
2023-11-11T09:15:16.460Z,17.99
2023-11-11T09:17:44.917Z,17.86
2023-11-11T09:20:12.367Z,17.96
2023-11-11T09:22:39.456Z,17.91
2023-11-11T09:25:07.397Z,17.88
2023-11-11T09:27:34.586Z,17.94
2023-11-11T09:30:01.747Z,17.97
2023-11-11T09:32:28.739Z,17.99
2023-11-11T09:34:57.130Z,17.94
2023-11-11T09:37:24.071Z,18.01
2023-11-11T09:39:51.091Z,18.00
2023-11-11T09:42:18.328Z,17.92
2023-11-11T09:47:23.254Z,18.47
2023-11-11T09:49:50.339Z,18.68
2023-11-11T09:52:20.736Z,18.78
2023-11-11T09:54:48.382Z,18.70
2023-11-11T09:57:19.754Z,18.55
2023-11-11T09:59:49.834Z,18.22
2023-11-11T10:02:17.763Z,18.46
2023-11-11T10:04:44.809Z,18.55
2023-11-11T10:07:12.399Z,18.53
2023-11-11T10:09:41.088Z,18.52
2023-11-11T10:12:09.122Z,18.62
2023-11-11T10:14:39.290Z,18.60
2023-11-11T10:17:09.643Z,18.57
2023-11-11T10:19:50.945Z,18.41
2023-11-11T10:22:24.351Z,18.38
2023-11-11T10:24:52.800Z,18.44
2023-11-11T10:27:19.833Z,18.42
2023-11-11T10:29:47.965Z,18.44
2023-11-11T10:32:15.009Z,18.50
2023-11-11T10:34:42.411Z,18.46
2023-11-11T10:37:09.539Z,18.56
2023-11-11T10:39:36.950Z,18.65
2023-11-11T10:42:05.941Z,18.63
2023-11-11T10:44:32.990Z,18.59
2023-11-11T10:47:00.328Z,18.80
2023-11-11T10:49:28.035Z,18.73
2023-11-11T10:51:56.617Z,18.67
2023-11-11T10:54:25.740Z,18.70
2023-11-11T10:56:53.734Z,18.70
2023-11-11T10:59:23.542Z,18.77
2023-11-11T11:01:50.827Z,18.68
2023-11-11T11:04:28.485Z,18.72
2023-11-11T11:07:04.356Z,18.60
2023-11-11T11:09:41.222Z,18.53
2023-11-11T11:12:19.966Z,18.63
2023-11-11T11:14:50.545Z,18.44
2023-11-11T11:17:17.817Z,17.35
2023-11-11T11:19:54.782Z,17.82
2023-11-11T11:22:24.807Z,18.07
2023-11-11T11:24:51.852Z,18.44
2023-11-11T11:27:20.267Z,18.60
2023-11-11T11:29:48.857Z,18.68
2023-11-11T11:32:23.699Z,18.89
2023-11-11T11:35:25.816Z,19.29
2023-11-11T11:37:54.938Z,19.52
2023-11-11T11:40:23.558Z,19.74
2023-11-11T11:42:50.975Z,19.55
2023-11-11T11:45:29.845Z,19.29
2023-11-11T11:47:57.380Z,19.09
2023-11-11T11:50:24.487Z,19.05
2023-11-11T11:52:51.474Z,18.95
2023-11-11T11:55:18.674Z,18.85
2023-11-11T11:57:55.198Z,18.77
2023-11-11T12:00:23.794Z,18.64
2023-11-11T12:02:53.522Z,18.52
2023-11-11T12:05:21.149Z,18.37
2023-11-11T12:07:52.453Z,18.41
2023-11-11T12:10:19.674Z,18.19
2023-11-11T12:12:46.753Z,18.16
2023-11-11T12:15:15.974Z,18.05
2023-11-11T12:17:45.575Z,18.04
2023-11-11T12:20:12.843Z,18.03
2023-11-11T12:22:43.206Z,18.02
2023-11-11T12:25:10.663Z,18.21
2023-11-11T12:27:37.827Z,18.40
2023-11-11T12:30:18.305Z,18.33
2023-11-11T12:33:02.058Z,18.25
2023-11-11T12:35:29.852Z,18.16
2023-11-11T12:37:57.087Z,18.08
2023-11-11T12:40:31.187Z,17.95
2023-11-11T12:42:58.364Z,17.82
2023-11-11T12:45:25.447Z,17.78
2023-11-11T12:47:54.568Z,17.74
2023-11-11T12:50:31.474Z,17.77
2023-11-11T12:53:05.922Z,17.83
2023-11-11T12:55:32.918Z,17.88
2023-11-11T12:58:22.010Z,17.86
2023-11-11T13:00:50.160Z,17.78
2023-11-11T13:03:23.161Z,17.88
2023-11-11T13:05:50.561Z,17.89
2023-11-11T13:08:17.508Z,17.91
2023-11-11T13:10:45.728Z,17.88
2023-11-11T13:13:13.768Z,17.81
2023-11-11T13:15:41.420Z,17.79
2023-11-11T13:18:08.509Z,17.71
2023-11-11T13:20:37.045Z,17.78
2023-11-11T13:23:03.999Z,17.82
2023-11-11T13:25:31.041Z,17.86
2023-11-11T13:27:58.029Z,17.85
2023-11-11T13:30:24.987Z,17.92
2023-11-11T13:32:52.149Z,17.83
2023-11-11T13:35:19.247Z,17.87
2023-11-11T13:37:47.893Z,17.79
2023-11-11T13:40:14.908Z,17.77
2023-11-11T13:42:41.856Z,17.85
2023-11-11T13:45:09.496Z,17.87
2023-11-11T13:47:36.563Z,17.81
2023-11-11T13:50:03.900Z,17.75
2023-11-11T13:52:30.944Z,17.71
2023-11-11T13:54:59.384Z,17.69
2023-11-11T13:57:26.358Z,17.64
2023-11-11T13:59:53.346Z,17.57
2023-11-11T14:02:20.402Z,17.54
2023-11-11T14:04:47.660Z,17.50
2023-11-11T14:07:14.909Z,17.45
2023-11-11T14:09:44.683Z,17.48
2023-11-11T14:12:14.988Z,17.48
2023-11-11T14:14:42.855Z,17.42
2023-11-11T14:17:09.904Z,17.23
2023-11-11T14:19:37.081Z,17.22
2023-11-11T14:22:04.687Z,17.22
2023-11-11T14:24:31.741Z,17.18
2023-11-11T14:26:58.834Z,17.17
2023-11-11T14:29:27.755Z,17.15
2023-11-11T14:31:54.889Z,17.10
2023-11-11T14:34:21.968Z,17.11
2023-11-11T14:36:49.188Z,17.13
2023-11-11T14:39:16.183Z,17.13
2023-11-11T14:41:43.202Z,17.10
2023-11-11T14:44:10.358Z,17.05
2023-11-11T14:46:38.771Z,16.58
2023-11-11T14:49:06.112Z,16.90
2023-11-11T14:51:33.200Z,17.05
2023-11-11T14:54:00.249Z,17.04
2023-11-11T14:56:27.311Z,17.09
2023-11-11T14:58:54.307Z,17.10
2023-11-11T15:01:21.360Z,17.11
2023-11-11T15:03:49.960Z,17.04
2023-11-11T15:06:17.119Z,17.00
2023-11-11T15:08:44.108Z,17.04
2023-11-11T15:11:11.250Z,16.98
2023-11-11T15:13:38.209Z,16.94
2023-11-11T15:16:06.129Z,16.87
2023-11-11T15:18:33.239Z,16.78
2023-11-11T15:21:01.643Z,16.77
2023-11-11T15:23:28.762Z,16.71
2023-11-11T15:25:55.762Z,16.68
2023-11-11T15:28:22.837Z,16.40
2023-11-11T15:30:50.137Z,16.55
2023-11-11T15:33:17.328Z,16.56
2023-11-11T15:35:44.645Z,16.49
2023-11-11T15:38:13.066Z,16.48
2023-11-11T15:40:40.193Z,16.48
2023-11-11T15:43:07.258Z,16.51
2023-11-11T15:45:34.435Z,16.51
2023-11-11T15:48:01.438Z,16.47
2023-11-11T15:50:28.410Z,16.50
2023-11-11T15:52:55.438Z,16.48
2023-11-11T15:55:23.981Z,16.46
2023-11-11T15:57:50.990Z,16.50
2023-11-11T16:00:18.354Z,16.42
2023-11-11T16:02:45.398Z,16.39
2023-11-11T16:05:12.576Z,16.36
2023-11-11T16:07:39.667Z,16.36
2023-11-11T16:10:07.449Z,16.37
2023-11-11T16:12:35.819Z,16.38
2023-11-11T16:15:02.853Z,16.38
2023-11-11T16:17:30.039Z,16.37
2023-11-11T16:19:59.162Z,16.33
2023-11-11T16:22:26.386Z,16.32
2023-11-11T16:24:53.348Z,16.30
2023-11-11T16:27:20.323Z,16.29
2023-11-11T16:29:48.737Z,16.32
2023-11-11T16:32:15.699Z,16.28
2023-11-11T16:34:42.747Z,16.28
2023-11-11T16:37:09.792Z,16.28
2023-11-11T16:39:42.144Z,16.23
2023-11-11T16:42:09.159Z,16.18
2023-11-11T16:44:36.558Z,16.20
2023-11-11T16:47:05.540Z,16.21
2023-11-11T16:49:33.155Z,16.23
2023-11-11T16:52:00.430Z,16.28
2023-11-11T16:54:27.468Z,16.28
2023-11-11T16:56:54.558Z,16.24
2023-11-11T16:59:21.796Z,16.29
2023-11-11T17:01:49.137Z,16.29
2023-11-11T17:04:17.821Z,16.26
2023-11-11T17:06:44.913Z,16.28
2023-11-11T17:09:12.012Z,16.22
2023-11-11T17:11:42.769Z,16.28
2023-11-11T17:14:10.064Z,16.22
2023-11-11T17:16:38.159Z,16.22
2023-11-11T17:19:05.326Z,16.18
2023-11-11T17:21:34.072Z,16.15
2023-11-11T17:24:01.258Z,16.10
2023-11-11T17:26:28.767Z,16.07
2023-11-11T17:28:55.857Z,16.06
2023-11-11T17:31:23.010Z,16.03
2023-11-11T17:33:56.837Z,15.92
2023-11-11T17:36:26.278Z,15.92
2023-11-11T17:38:55.226Z,15.88
2023-11-11T17:41:22.538Z,15.85
2023-11-11T17:43:49.667Z,15.86
2023-11-11T17:46:20.475Z,15.91
2023-11-11T17:48:47.576Z,15.85
2023-11-11T17:51:15.755Z,15.83
2023-11-11T17:53:42.909Z,15.83
2023-11-11T17:56:20.673Z,15.75
2023-11-11T17:58:47.687Z,15.70
2023-11-11T18:01:14.957Z,15.67
2023-11-11T18:03:42.219Z,15.62
2023-11-11T18:06:09.264Z,15.59
2023-11-11T18:08:36.356Z,15.54
2023-11-11T18:11:06.789Z,15.53
2023-11-11T18:13:37.258Z,15.49
2023-11-11T18:16:05.187Z,15.50
2023-11-11T18:18:32.259Z,15.51
2023-11-11T18:20:59.390Z,15.45
2023-11-11T18:23:26.490Z,15.42
2023-11-11T18:25:53.664Z,15.39
2023-11-11T18:28:20.675Z,15.35
2023-11-11T18:30:49.049Z,15.32
2023-11-11T18:33:16.194Z,15.31
2023-11-11T18:35:43.374Z,15.28
2023-11-11T18:38:10.477Z,15.23
2023-11-11T18:40:37.498Z,15.18
2023-11-11T18:43:04.590Z,15.14
2023-11-11T18:45:31.741Z,15.12
2023-11-11T18:48:00.123Z,15.10
2023-11-11T18:50:27.320Z,15.05
2023-11-11T18:52:54.426Z,15.08
2023-11-11T18:55:21.447Z,15.07
2023-11-11T18:57:48.469Z,15.05
2023-11-11T19:00:16.372Z,15.01
2023-11-11T19:02:43.410Z,14.99
2023-11-11T19:05:12.025Z,14.97
2023-11-11T19:07:39.279Z,14.95
2023-11-11T19:10:07.263Z,14.96
2023-11-11T19:12:34.383Z,14.88
2023-11-11T19:15:01.434Z,14.86
2023-11-11T19:17:28.541Z,14.84
2023-11-11T19:19:55.742Z,14.81
2023-11-11T19:22:24.786Z,14.77
2023-11-11T19:24:52.599Z,14.73
2023-11-11T19:27:19.689Z,14.68
2023-11-11T19:29:46.592Z,14.66
2023-11-11T19:32:13.677Z,14.66
2023-11-11T19:34:40.746Z,14.62
2023-11-11T19:37:07.813Z,14.61
2023-11-11T19:39:36.305Z,14.56
2023-11-11T19:42:03.649Z,14.59
2023-11-11T19:44:30.674Z,14.55
2023-11-11T19:46:57.627Z,14.53
2023-11-11T19:49:24.604Z,14.52
2023-11-11T19:51:51.599Z,14.48
2023-11-11T19:54:18.631Z,14.50
2023-11-11T19:56:47.146Z,14.47
2023-11-11T19:59:14.243Z,14.46
2023-11-11T20:01:41.623Z,14.42
2023-11-11T20:04:08.737Z,14.40
2023-11-11T20:06:35.802Z,14.38
2023-11-11T20:09:03.630Z,14.37
2023-11-11T20:11:30.799Z,14.35
2023-11-11T20:13:59.451Z,14.30
2023-11-11T20:16:26.583Z,14.34
2023-11-11T20:18:53.820Z,14.34
2023-11-11T20:21:20.801Z,14.35
2023-11-11T20:23:47.734Z,14.33
2023-11-11T20:26:14.839Z,14.34
2023-11-11T20:28:41.935Z,14.34
2023-11-11T20:31:10.366Z,14.27
2023-11-11T20:33:37.301Z,14.25
2023-11-11T20:36:06.691Z,14.20
2023-11-11T20:38:33.720Z,14.17
2023-11-11T20:41:00.760Z,14.14
2023-11-11T20:43:28.329Z,14.17
2023-11-11T20:45:55.531Z,14.20
2023-11-11T20:48:24.052Z,14.19
2023-11-11T20:50:51.326Z,14.18
2023-11-11T20:53:18.464Z,14.19
2023-11-11T20:55:45.564Z,14.23
2023-11-11T20:58:12.685Z,14.19
2023-11-11T21:00:39.932Z,14.18
2023-11-11T21:03:07.231Z,14.28
2023-11-11T21:05:35.765Z,14.29
2023-11-11T21:08:02.815Z,14.25
2023-11-11T21:10:29.791Z,14.24
2023-11-11T21:12:56.942Z,14.26
2023-11-11T21:15:23.943Z,14.24
2023-11-11T21:17:50.974Z,14.19
2023-11-11T21:20:18.104Z,14.24
2023-11-11T21:22:47.092Z,14.16
2023-11-11T21:25:14.345Z,14.05
2023-11-11T21:27:41.529Z,14.00
2023-11-11T21:30:09.924Z,14.00
2023-11-11T21:32:37.123Z,14.06
2023-11-11T21:35:04.831Z,14.05
2023-11-11T21:37:32.000Z,14.06
2023-11-11T21:40:00.359Z,14.11
2023-11-11T21:42:27.401Z,14.14
2023-11-11T21:44:54.728Z,14.14
2023-11-11T21:47:22.601Z,14.10
2023-11-11T21:49:49.727Z,14.05
2023-11-11T21:52:16.716Z,14.01
2023-11-11T21:54:43.920Z,13.97
2023-11-11T21:57:12.447Z,14.00
2023-11-11T21:59:39.461Z,14.08
2023-11-11T22:02:06.598Z,14.11
2023-11-11T22:04:33.954Z,14.05
2023-11-11T22:07:01.079Z,14.06
2023-11-11T22:09:28.087Z,14.01
2023-11-11T22:11:55.104Z,13.97
2023-11-11T22:14:23.441Z,13.94
2023-11-11T22:16:50.688Z,13.88
2023-11-11T22:19:17.698Z,13.79
2023-11-11T22:21:44.753Z,13.72
2023-11-11T22:24:11.730Z,13.71
2023-11-11T22:26:38.695Z,13.78
2023-11-11T22:29:05.886Z,13.82
2023-11-11T22:31:34.368Z,13.84
2023-11-11T22:34:01.405Z,13.94
2023-11-11T22:36:28.382Z,13.95
2023-11-11T22:38:55.522Z,13.93
2023-11-11T22:41:22.512Z,13.94
2023-11-11T22:43:53.278Z,13.92
2023-11-11T22:46:21.367Z,14.02
2023-11-11T22:48:49.887Z,14.07
2023-11-11T22:51:16.951Z,14.11
2023-11-11T22:53:43.982Z,14.12
2023-11-11T22:56:11.204Z,14.12
2023-11-11T22:58:38.439Z,14.13
2023-11-11T23:01:05.461Z,14.15
2023-11-11T23:03:32.833Z,14.23
2023-11-11T23:06:01.305Z,14.32
2023-11-11T23:08:28.657Z,14.27
2023-11-11T23:10:55.741Z,14.24
2023-11-11T23:13:23.213Z,14.23
2023-11-11T23:15:50.235Z,14.19
2023-11-11T23:18:17.492Z,14.19
2023-11-11T23:20:44.755Z,14.17
2023-11-11T23:23:13.346Z,14.16
2023-11-11T23:25:40.487Z,14.22
2023-11-11T23:28:07.752Z,14.26
2023-11-11T23:30:34.904Z,14.33
2023-11-11T23:33:02.248Z,14.27
2023-11-11T23:35:29.684Z,14.30
2023-11-11T23:37:56.797Z,14.30
2023-11-11T23:40:25.157Z,14.32
2023-11-11T23:42:52.282Z,14.40
2023-11-11T23:45:19.552Z,14.45
2023-11-11T23:47:47.964Z,14.46
2023-11-11T23:50:15.201Z,14.50
2023-11-11T23:52:42.483Z,14.40
2023-11-11T23:55:09.896Z,14.39
2023-11-11T23:57:38.568Z,14.33
